sensor_id;sensor_type;location;lat;lon;timestamp;P1;durP1;ratioP1;P2;durP2;ratioP2
2019;SDS011;1014;51.960;8.542;2024-02-04T00:00:26;52.27;;;48.60;;
2019;SDS011;1014;51.960;8.542;2024-02-04T00:02:53;51.70;;;48.03;;
2019;SDS011;1014;51.960;8.542;2024-02-04T00:05:21;47.50;;;44.27;;
2019;SDS011;1014;51.960;8.542;2024-02-04T00:07:48;51.60;;;47.97;;
2019;SDS011;1014;51.960;8.542;2024-02-04T00:10:17;50.50;;;46.90;;
2019;SDS011;1014;51.960;8.542;2024-02-04T00:12:45;51.83;;;47.73;;
2019;SDS011;1014;51.960;8.542;2024-02-04T00:15:12;49.97;;;46.30;;
2019;SDS011;1014;51.960;8.542;2024-02-04T00:17:39;52.30;;;48.43;;
2019;SDS011;1014;51.960;8.542;2024-02-04T00:20:07;49.63;;;46.53;;
2019;SDS011;1014;51.960;8.542;2024-02-04T00:22:34;51.03;;;47.77;;
2019;SDS011;1014;51.960;8.542;2024-02-04T00:25:03;50.70;;;47.50;;
2019;SDS011;1014;51.960;8.542;2024-02-04T00:27:31;47.70;;;44.70;;
2019;SDS011;1014;51.960;8.542;2024-02-04T00:29:59;46.00;;;43.10;;
2019;SDS011;1014;51.960;8.542;2024-02-04T00:32:26;47.17;;;44.23;;
2019;SDS011;1014;51.960;8.542;2024-02-04T00:34:53;45.10;;;42.40;;
2019;SDS011;1014;51.960;8.542;2024-02-04T00:37:21;48.13;;;44.60;;
2019;SDS011;1014;51.960;8.542;2024-02-04T00:39:48;47.77;;;44.57;;
2019;SDS011;1014;51.960;8.542;2024-02-04T00:42:16;47.37;;;44.43;;
2019;SDS011;1014;51.960;8.542;2024-02-04T00:44:44;47.93;;;45.00;;
2019;SDS011;1014;51.960;8.542;2024-02-04T00:47:11;46.90;;;44.00;;
2019;SDS011;1014;51.960;8.542;2024-02-04T00:49:39;46.53;;;43.53;;
2019;SDS011;1014;51.960;8.542;2024-02-04T00:52:07;43.93;;;41.63;;
2019;SDS011;1014;51.960;8.542;2024-02-04T00:54:34;46.37;;;43.67;;
2019;SDS011;1014;51.960;8.542;2024-02-04T00:57:04;48.43;;;45.23;;
2019;SDS011;1014;51.960;8.542;2024-02-04T00:59:31;48.63;;;45.23;;
2019;SDS011;1014;51.960;8.542;2024-02-04T01:02:03;46.47;;;43.50;;
2019;SDS011;1014;51.960;8.542;2024-02-04T01:04:30;47.80;;;44.90;;
2019;SDS011;1014;51.960;8.542;2024-02-04T01:06:57;47.53;;;44.23;;
2019;SDS011;1014;51.960;8.542;2024-02-04T01:09:24;47.87;;;44.97;;
2019;SDS011;1014;51.960;8.542;2024-02-04T01:11:51;46.87;;;44.07;;
2019;SDS011;1014;51.960;8.542;2024-02-04T01:14:19;47.50;;;44.50;;
2019;SDS011;1014;51.960;8.542;2024-02-04T01:16:46;48.90;;;45.80;;
2019;SDS011;1014;51.960;8.542;2024-02-04T01:19:17;51.07;;;47.47;;
2019;SDS011;1014;51.960;8.542;2024-02-04T01:21:44;45.90;;;42.90;;
2019;SDS011;1014;51.960;8.542;2024-02-04T01:24:10;49.37;;;45.90;;
2019;SDS011;1014;51.960;8.542;2024-02-04T01:26:37;48.90;;;45.47;;
2019;SDS011;1014;51.960;8.542;2024-02-04T01:29:05;49.00;;;45.83;;
2019;SDS011;1014;51.960;8.542;2024-02-04T01:31:31;50.23;;;46.53;;
2019;SDS011;1014;51.960;8.542;2024-02-04T01:33:58;51.67;;;47.97;;
2019;SDS011;1014;51.960;8.542;2024-02-04T01:36:28;50.03;;;46.10;;
2019;SDS011;1014;51.960;8.542;2024-02-04T01:38:55;53.30;;;48.73;;
2019;SDS011;1014;51.960;8.542;2024-02-04T01:41:23;64.47;;;59.53;;
2019;SDS011;1014;51.960;8.542;2024-02-04T01:43:52;65.87;;;60.57;;
2019;SDS011;1014;51.960;8.542;2024-02-04T01:46:20;63.80;;;58.50;;
2019;SDS011;1014;51.960;8.542;2024-02-04T01:48:47;63.97;;;58.70;;
2019;SDS011;1014;51.960;8.542;2024-02-04T01:51:14;70.33;;;64.57;;
2019;SDS011;1014;51.960;8.542;2024-02-04T01:53:44;78.73;;;72.23;;
2019;SDS011;1014;51.960;8.542;2024-02-04T01:56:13;79.50;;;73.00;;
2019;SDS011;1014;51.960;8.542;2024-02-04T01:58:40;73.63;;;68.23;;
2019;SDS011;1014;51.960;8.542;2024-02-04T02:01:09;72.67;;;66.93;;
2019;SDS011;1014;51.960;8.542;2024-02-04T02:03:38;71.27;;;65.67;;
2019;SDS011;1014;51.960;8.542;2024-02-04T02:06:05;60.27;;;56.20;;
2019;SDS011;1014;51.960;8.542;2024-02-04T02:08:32;65.80;;;61.20;;
2019;SDS011;1014;51.960;8.542;2024-02-04T02:11:04;74.40;;;69.20;;
2019;SDS011;1014;51.960;8.542;2024-02-04T02:13:34;77.73;;;71.73;;
2019;SDS011;1014;51.960;8.542;2024-02-04T02:16:03;77.03;;;71.53;;
2019;SDS011;1014;51.960;8.542;2024-02-04T02:18:35;64.17;;;59.63;;
2019;SDS011;1014;51.960;8.542;2024-02-04T02:21:09;72.00;;;66.50;;
2019;SDS011;1014;51.960;8.542;2024-02-04T02:23:40;66.50;;;61.80;;
2019;SDS011;1014;51.960;8.542;2024-02-04T02:26:11;58.67;;;55.17;;
2019;SDS011;1014;51.960;8.542;2024-02-04T02:28:38;61.07;;;57.53;;
2019;SDS011;1014;51.960;8.542;2024-02-04T02:31:07;58.27;;;54.70;;
2019;SDS011;1014;51.960;8.542;2024-02-04T02:33:34;65.03;;;60.73;;
2019;SDS011;1014;51.960;8.542;2024-02-04T02:36:02;69.97;;;65.00;;
2019;SDS011;1014;51.960;8.542;2024-02-04T02:38:33;61.53;;;57.70;;
2019;SDS011;1014;51.960;8.542;2024-02-04T02:41:04;63.97;;;59.70;;
2019;SDS011;1014;51.960;8.542;2024-02-04T02:43:34;64.43;;;60.13;;
2019;SDS011;1014;51.960;8.542;2024-02-04T02:46:01;61.03;;;57.13;;
2019;SDS011;1014;51.960;8.542;2024-02-04T02:48:28;65.07;;;60.60;;
2019;SDS011;1014;51.960;8.542;2024-02-04T02:50:55;60.40;;;56.40;;
2019;SDS011;1014;51.960;8.542;2024-02-04T02:53:23;60.70;;;57.03;;
2019;SDS011;1014;51.960;8.542;2024-02-04T02:55:50;60.30;;;56.67;;
2019;SDS011;1014;51.960;8.542;2024-02-04T02:58:18;58.47;;;54.83;;
2019;SDS011;1014;51.960;8.542;2024-02-04T03:00:46;55.07;;;51.70;;
2019;SDS011;1014;51.960;8.542;2024-02-04T03:03:14;65.40;;;60.67;;
2019;SDS011;1014;51.960;8.542;2024-02-04T03:05:43;56.87;;;53.57;;
2019;SDS011;1014;51.960;8.542;2024-02-04T03:08:10;61.47;;;57.20;;
2019;SDS011;1014;51.960;8.542;2024-02-04T03:10:37;58.70;;;54.93;;
2019;SDS011;1014;51.960;8.542;2024-02-04T03:13:04;56.93;;;53.73;;
2019;SDS011;1014;51.960;8.542;2024-02-04T03:15:31;59.53;;;55.60;;
2019;SDS011;1014;51.960;8.542;2024-02-04T03:17:59;56.07;;;52.57;;
2019;SDS011;1014;51.960;8.542;2024-02-04T03:20:26;57.17;;;53.67;;
2019;SDS011;1014;51.960;8.542;2024-02-04T03:22:54;56.30;;;52.80;;
2019;SDS011;1014;51.960;8.542;2024-02-04T03:25:21;59.27;;;55.63;;
2019;SDS011;1014;51.960;8.542;2024-02-04T03:27:51;62.47;;;58.73;;
2019;SDS011;1014;51.960;8.542;2024-02-04T03:30:18;62.33;;;58.73;;
2019;SDS011;1014;51.960;8.542;2024-02-04T03:32:46;63.83;;;59.53;;
2019;SDS011;1014;51.960;8.542;2024-02-04T03:35:14;66.90;;;62.33;;
2019;SDS011;1014;51.960;8.542;2024-02-04T03:37:43;64.10;;;60.27;;
2019;SDS011;1014;51.960;8.542;2024-02-04T03:40:11;65.80;;;61.40;;
2019;SDS011;1014;51.960;8.542;2024-02-04T03:42:38;65.03;;;60.60;;
2019;SDS011;1014;51.960;8.542;2024-02-04T03:45:06;63.10;;;59.00;;
2019;SDS011;1014;51.960;8.542;2024-02-04T03:47:33;66.30;;;61.93;;
2019;SDS011;1014;51.960;8.542;2024-02-04T03:50:00;62.37;;;58.40;;
2019;SDS011;1014;51.960;8.542;2024-02-04T03:52:30;62.57;;;58.47;;
2019;SDS011;1014;51.960;8.542;2024-02-04T03:54:57;64.23;;;60.10;;
2019;SDS011;1014;51.960;8.542;2024-02-04T03:57:25;63.37;;;59.27;;
2019;SDS011;1014;51.960;8.542;2024-02-04T03:59:52;60.93;;;57.60;;
2019;SDS011;1014;51.960;8.542;2024-02-04T04:02:19;64.80;;;61.00;;
2019;SDS011;1014;51.960;8.542;2024-02-04T04:04:46;61.87;;;58.07;;
2019;SDS011;1014;51.960;8.542;2024-02-04T04:07:13;66.17;;;62.47;;
2019;SDS011;1014;51.960;8.542;2024-02-04T04:09:43;63.00;;;59.30;;
2019;SDS011;1014;51.960;8.542;2024-02-04T04:12:12;62.40;;;58.77;;
2019;SDS011;1014;51.960;8.542;2024-02-04T04:14:39;63.20;;;59.40;;
2019;SDS011;1014;51.960;8.542;2024-02-04T04:17:06;56.87;;;53.50;;
2019;SDS011;1014;51.960;8.542;2024-02-04T04:19:33;60.33;;;57.07;;
2019;SDS011;1014;51.960;8.542;2024-02-04T04:22:01;58.43;;;55.17;;
2019;SDS011;1014;51.960;8.542;2024-02-04T04:24:28;53.70;;;50.87;;
2019;SDS011;1014;51.960;8.542;2024-02-04T04:26:57;50.00;;;47.60;;
2019;SDS011;1014;51.960;8.542;2024-02-04T04:29:24;46.70;;;44.03;;
2019;SDS011;1014;51.960;8.542;2024-02-04T04:31:52;43.90;;;41.30;;
2019;SDS011;1014;51.960;8.542;2024-02-04T04:34:19;47.30;;;44.77;;
2019;SDS011;1014;51.960;8.542;2024-02-04T04:36:46;42.30;;;40.10;;
2019;SDS011;1014;51.960;8.542;2024-02-04T04:39:13;41.73;;;39.73;;
2019;SDS011;1014;51.960;8.542;2024-02-04T04:41:41;35.47;;;33.67;;
2019;SDS011;1014;51.960;8.542;2024-02-04T04:44:10;33.93;;;32.27;;
2019;SDS011;1014;51.960;8.542;2024-02-04T04:46:37;35.07;;;33.47;;
2019;SDS011;1014;51.960;8.542;2024-02-04T04:49:04;36.87;;;34.97;;
2019;SDS011;1014;51.960;8.542;2024-02-04T04:51:31;35.73;;;33.93;;
2019;SDS011;1014;51.960;8.542;2024-02-04T04:53:59;37.83;;;35.97;;
2019;SDS011;1014;51.960;8.542;2024-02-04T04:56:26;33.60;;;32.00;;
2019;SDS011;1014;51.960;8.542;2024-02-04T04:58:52;36.13;;;34.53;;
2019;SDS011;1014;51.960;8.542;2024-02-04T05:01:21;34.90;;;33.30;;
2019;SDS011;1014;51.960;8.542;2024-02-04T05:03:48;36.03;;;34.23;;
2019;SDS011;1014;51.960;8.542;2024-02-04T05:06:15;36.07;;;34.33;;
2019;SDS011;1014;51.960;8.542;2024-02-04T05:08:43;36.37;;;34.57;;
2019;SDS011;1014;51.960;8.542;2024-02-04T05:11:10;34.70;;;33.20;;
2019;SDS011;1014;51.960;8.542;2024-02-04T05:13:38;36.43;;;34.43;;
2019;SDS011;1014;51.960;8.542;2024-02-04T05:16:05;35.57;;;33.83;;
2019;SDS011;1014;51.960;8.542;2024-02-04T05:18:34;36.30;;;34.60;;
2019;SDS011;1014;51.960;8.542;2024-02-04T05:21:01;39.60;;;37.50;;
2019;SDS011;1014;51.960;8.542;2024-02-04T05:23:28;42.00;;;39.80;;
2019;SDS011;1014;51.960;8.542;2024-02-04T05:25:55;42.30;;;39.80;;
2019;SDS011;1014;51.960;8.542;2024-02-04T05:28:22;40.57;;;38.57;;
2019;SDS011;1014;51.960;8.542;2024-02-04T05:30:49;44.03;;;41.73;;
2019;SDS011;1014;51.960;8.542;2024-02-04T05:33:16;40.43;;;38.37;;
2019;SDS011;1014;51.960;8.542;2024-02-04T05:35:45;42.10;;;39.70;;
2019;SDS011;1014;51.960;8.542;2024-02-04T05:38:12;42.70;;;40.30;;
2019;SDS011;1014;51.960;8.542;2024-02-04T05:40:41;43.27;;;41.07;;
2019;SDS011;1014;51.960;8.542;2024-02-04T05:43:09;42.50;;;40.27;;
2019;SDS011;1014;51.960;8.542;2024-02-04T05:45:37;42.50;;;40.30;;
2019;SDS011;1014;51.960;8.542;2024-02-04T05:48:06;38.87;;;36.83;;
2019;SDS011;1014;51.960;8.542;2024-02-04T05:50:33;39.50;;;37.50;;
2019;SDS011;1014;51.960;8.542;2024-02-04T05:53:01;35.10;;;33.27;;
2019;SDS011;1014;51.960;8.542;2024-02-04T05:55:29;36.90;;;34.33;;
2019;SDS011;1014;51.960;8.542;2024-02-04T05:57:56;38.73;;;36.33;;
2019;SDS011;1014;51.960;8.542;2024-02-04T06:00:23;41.73;;;38.93;;
2019;SDS011;1014;51.960;8.542;2024-02-04T06:02:52;41.27;;;38.97;;
2019;SDS011;1014;51.960;8.542;2024-02-04T06:05:19;39.47;;;37.07;;
2019;SDS011;1014;51.960;8.542;2024-02-04T06:07:46;44.30;;;41.70;;
2019;SDS011;1014;51.960;8.542;2024-02-04T06:10:14;38.53;;;36.10;;
2019;SDS011;1014;51.960;8.542;2024-02-04T06:12:43;37.67;;;35.43;;
2019;SDS011;1014;51.960;8.542;2024-02-04T06:15:12;35.67;;;33.70;;
2019;SDS011;1014;51.960;8.542;2024-02-04T06:17:40;35.63;;;33.33;;
2019;SDS011;1014;51.960;8.542;2024-02-04T06:20:07;35.93;;;33.73;;
2019;SDS011;1014;51.960;8.542;2024-02-04T06:22:34;35.13;;;33.10;;
2019;SDS011;1014;51.960;8.542;2024-02-04T06:25:01;31.23;;;29.47;;
2019;SDS011;1014;51.960;8.542;2024-02-04T06:27:30;29.80;;;28.17;;
2019;SDS011;1014;51.960;8.542;2024-02-04T06:29:58;29.53;;;27.77;;
2019;SDS011;1014;51.960;8.542;2024-02-04T06:32:25;26.50;;;25.17;;
2019;SDS011;1014;51.960;8.542;2024-02-04T06:34:52;24.70;;;23.40;;
2019;SDS011;1014;51.960;8.542;2024-02-04T06:37:20;28.07;;;26.30;;
2019;SDS011;1014;51.960;8.542;2024-02-04T06:39:47;28.70;;;27.00;;
2019;SDS011;1014;51.960;8.542;2024-02-04T06:42:14;28.13;;;26.40;;
2019;SDS011;1014;51.960;8.542;2024-02-04T06:44:44;27.40;;;25.73;;
2019;SDS011;1014;51.960;8.542;2024-02-04T06:47:11;27.57;;;26.07;;
2019;SDS011;1014;51.960;8.542;2024-02-04T06:49:40;28.23;;;26.50;;
2019;SDS011;1014;51.960;8.542;2024-02-04T06:52:07;29.40;;;27.43;;
2019;SDS011;1014;51.960;8.542;2024-02-04T06:54:35;30.93;;;29.00;;
2019;SDS011;1014;51.960;8.542;2024-02-04T06:57:02;31.10;;;29.20;;
2019;SDS011;1014;51.960;8.542;2024-02-04T06:59:32;30.60;;;28.90;;
2019;SDS011;1014;51.960;8.542;2024-02-04T07:02:01;31.27;;;29.57;;
2019;SDS011;1014;51.960;8.542;2024-02-04T07:04:28;31.27;;;29.00;;
2019;SDS011;1014;51.960;8.542;2024-02-04T07:06:55;31.37;;;29.30;;
2019;SDS011;1014;51.960;8.542;2024-02-04T07:09:22;31.70;;;29.93;;
2019;SDS011;1014;51.960;8.542;2024-02-04T07:11:49;31.07;;;29.03;;
2019;SDS011;1014;51.960;8.542;2024-02-04T07:14:16;34.43;;;32.23;;
2019;SDS011;1014;51.960;8.542;2024-02-04T07:16:43;34.97;;;32.80;;
2019;SDS011;1014;51.960;8.542;2024-02-04T07:19:11;32.93;;;30.90;;
2019;SDS011;1014;51.960;8.542;2024-02-04T07:21:38;35.50;;;33.10;;
2019;SDS011;1014;51.960;8.542;2024-02-04T07:24:05;31.53;;;29.50;;
2019;SDS011;1014;51.960;8.542;2024-02-04T07:26:32;35.43;;;32.43;;
2019;SDS011;1014;51.960;8.542;2024-02-04T07:29:00;34.07;;;31.30;;
2019;SDS011;1014;51.960;8.542;2024-02-04T07:31:27;33.37;;;31.07;;
2019;SDS011;1014;51.960;8.542;2024-02-04T07:33:54;38.90;;;36.10;;
2019;SDS011;1014;51.960;8.542;2024-02-04T07:36:22;40.90;;;38.00;;
2019;SDS011;1014;51.960;8.542;2024-02-04T07:38:50;47.67;;;43.60;;
2019;SDS011;1014;51.960;8.542;2024-02-04T07:41:17;46.83;;;42.60;;
2019;SDS011;1014;51.960;8.542;2024-02-04T07:43:44;40.37;;;37.33;;
2019;SDS011;1014;51.960;8.542;2024-02-04T07:46:13;42.53;;;39.43;;
2019;SDS011;1014;51.960;8.542;2024-02-04T07:48:40;50.67;;;46.63;;
2019;SDS011;1014;51.960;8.542;2024-02-04T07:51:07;46.67;;;43.03;;
2019;SDS011;1014;51.960;8.542;2024-02-04T07:53:35;44.67;;;41.37;;
2019;SDS011;1014;51.960;8.542;2024-02-04T07:56:02;40.47;;;37.00;;
2019;SDS011;1014;51.960;8.542;2024-02-04T07:58:31;39.50;;;37.00;;
2019;SDS011;1014;51.960;8.542;2024-02-04T08:00:58;41.27;;;38.30;;
2019;SDS011;1014;51.960;8.542;2024-02-04T08:03:26;35.30;;;32.70;;
2019;SDS011;1014;51.960;8.542;2024-02-04T08:05:53;32.80;;;31.00;;
2019;SDS011;1014;51.960;8.542;2024-02-04T08:08:20;36.87;;;34.00;;
2019;SDS011;1014;51.960;8.542;2024-02-04T08:10:51;32.87;;;30.90;;
2019;SDS011;1014;51.960;8.542;2024-02-04T08:13:21;35.70;;;33.20;;
2019;SDS011;1014;51.960;8.542;2024-02-04T08:15:48;35.97;;;33.10;;
2019;SDS011;1014;51.960;8.542;2024-02-04T08:18:15;32.97;;;30.23;;
2019;SDS011;1014;51.960;8.542;2024-02-04T08:20:45;34.80;;;32.43;;
2019;SDS011;1014;51.960;8.542;2024-02-04T08:23:11;32.50;;;30.10;;
2019;SDS011;1014;51.960;8.542;2024-02-04T08:25:40;30.87;;;29.10;;
2019;SDS011;1014;51.960;8.542;2024-02-04T08:28:09;29.37;;;27.53;;
2019;SDS011;1014;51.960;8.542;2024-02-04T08:30:36;32.00;;;29.77;;
2019;SDS011;1014;51.960;8.542;2024-02-04T08:33:04;29.07;;;27.57;;
2019;SDS011;1014;51.960;8.542;2024-02-04T08:35:33;28.87;;;27.17;;
2019;SDS011;1014;51.960;8.542;2024-02-04T08:38:02;27.93;;;26.23;;
2019;SDS011;1014;51.960;8.542;2024-02-04T08:40:29;25.27;;;23.50;;
2019;SDS011;1014;51.960;8.542;2024-02-04T08:42:57;23.20;;;21.80;;
2019;SDS011;1014;51.960;8.542;2024-02-04T08:45:25;23.23;;;21.83;;
2019;SDS011;1014;51.960;8.542;2024-02-04T08:47:52;22.60;;;21.00;;
2019;SDS011;1014;51.960;8.542;2024-02-04T08:50:23;23.53;;;21.87;;
2019;SDS011;1014;51.960;8.542;2024-02-04T08:52:50;22.67;;;21.57;;
2019;SDS011;1014;51.960;8.542;2024-02-04T08:55:17;23.43;;;22.00;;
2019;SDS011;1014;51.960;8.542;2024-02-04T08:57:45;21.80;;;20.57;;
2019;SDS011;1014;51.960;8.542;2024-02-04T09:00:13;20.67;;;19.60;;
2019;SDS011;1014;51.960;8.542;2024-02-04T09:02:42;21.87;;;20.63;;
2019;SDS011;1014;51.960;8.542;2024-02-04T09:05:10;21.30;;;20.17;;
2019;SDS011;1014;51.960;8.542;2024-02-04T09:07:37;22.00;;;20.53;;
2019;SDS011;1014;51.960;8.542;2024-02-04T09:10:05;20.23;;;18.73;;
2019;SDS011;1014;51.960;8.542;2024-02-04T09:12:33;19.47;;;18.50;;
2019;SDS011;1014;51.960;8.542;2024-02-04T09:15:00;21.50;;;19.90;;
2019;SDS011;1014;51.960;8.542;2024-02-04T09:17:30;21.00;;;19.47;;
2019;SDS011;1014;51.960;8.542;2024-02-04T09:19:59;18.77;;;17.87;;
2019;SDS011;1014;51.960;8.542;2024-02-04T09:22:27;20.47;;;18.90;;
2019;SDS011;1014;51.960;8.542;2024-02-04T09:24:54;19.60;;;18.30;;
2019;SDS011;1014;51.960;8.542;2024-02-04T09:27:22;18.43;;;17.33;;
2019;SDS011;1014;51.960;8.542;2024-02-04T09:29:49;21.03;;;19.77;;
2019;SDS011;1014;51.960;8.542;2024-02-04T09:32:16;19.97;;;18.20;;
2019;SDS011;1014;51.960;8.542;2024-02-04T09:34:43;18.17;;;17.20;;
2019;SDS011;1014;51.960;8.542;2024-02-04T09:37:15;19.67;;;18.10;;
2019;SDS011;1014;51.960;8.542;2024-02-04T09:39:42;18.13;;;16.90;;
2019;SDS011;1014;51.960;8.542;2024-02-04T09:42:09;19.23;;;18.23;;
2019;SDS011;1014;51.960;8.542;2024-02-04T09:44:37;19.27;;;18.17;;
2019;SDS011;1014;51.960;8.542;2024-02-04T09:47:05;20.13;;;18.87;;
2019;SDS011;1014;51.960;8.542;2024-02-04T09:49:32;20.17;;;19.07;;
2019;SDS011;1014;51.960;8.542;2024-02-04T09:52:00;18.83;;;17.63;;
2019;SDS011;1014;51.960;8.542;2024-02-04T09:54:31;28.77;;;19.20;;
2019;SDS011;1014;51.960;8.542;2024-02-04T09:56:58;18.60;;;17.50;;
2019;SDS011;1014;51.960;8.542;2024-02-04T09:59:26;17.47;;;16.27;;
2019;SDS011;1014;51.960;8.542;2024-02-04T10:01:54;18.27;;;17.30;;
2019;SDS011;1014;51.960;8.542;2024-02-04T10:04:22;19.50;;;18.20;;
2019;SDS011;1014;51.960;8.542;2024-02-04T10:06:49;17.37;;;16.17;;
2019;SDS011;1014;51.960;8.542;2024-02-04T10:09:16;16.73;;;15.53;;
2019;SDS011;1014;51.960;8.542;2024-02-04T10:11:44;17.50;;;16.47;;
2019;SDS011;1014;51.960;8.542;2024-02-04T10:14:11;18.17;;;16.87;;
2019;SDS011;1014;51.960;8.542;2024-02-04T10:16:39;16.53;;;15.73;;
2019;SDS011;1014;51.960;8.542;2024-02-04T10:19:07;18.30;;;16.87;;
2019;SDS011;1014;51.960;8.542;2024-02-04T10:21:34;19.00;;;17.70;;
2019;SDS011;1014;51.960;8.542;2024-02-04T10:24:02;18.77;;;17.37;;
2019;SDS011;1014;51.960;8.542;2024-02-04T10:26:29;16.87;;;15.33;;
2019;SDS011;1014;51.960;8.542;2024-02-04T10:29:00;19.10;;;17.77;;
2019;SDS011;1014;51.960;8.542;2024-02-04T10:31:27;17.57;;;16.57;;
2019;SDS011;1014;51.960;8.542;2024-02-04T10:33:55;16.57;;;15.77;;
2019;SDS011;1014;51.960;8.542;2024-02-04T10:36:22;16.70;;;15.70;;
2019;SDS011;1014;51.960;8.542;2024-02-04T10:38:52;17.63;;;16.73;;
2019;SDS011;1014;51.960;8.542;2024-02-04T10:41:20;18.07;;;16.97;;
2019;SDS011;1014;51.960;8.542;2024-02-04T10:43:48;16.80;;;15.80;;
2019;SDS011;1014;51.960;8.542;2024-02-04T10:46:17;17.20;;;15.83;;
2019;SDS011;1014;51.960;8.542;2024-02-04T10:48:45;17.47;;;16.30;;
2019;SDS011;1014;51.960;8.542;2024-02-04T10:51:15;18.50;;;17.30;;
2019;SDS011;1014;51.960;8.542;2024-02-04T10:53:43;18.00;;;16.53;;
2019;SDS011;1014;51.960;8.542;2024-02-04T10:56:13;18.33;;;16.80;;
2019;SDS011;1014;51.960;8.542;2024-02-04T10:58:43;18.10;;;16.70;;
2019;SDS011;1014;51.960;8.542;2024-02-04T11:01:10;17.10;;;16.10;;
2019;SDS011;1014;51.960;8.542;2024-02-04T11:03:39;17.20;;;15.90;;
2019;SDS011;1014;51.960;8.542;2024-02-04T11:06:08;17.50;;;16.03;;
2019;SDS011;1014;51.960;8.542;2024-02-04T11:08:35;16.37;;;15.47;;
2019;SDS011;1014;51.960;8.542;2024-02-04T11:11:02;18.40;;;17.03;;
2019;SDS011;1014;51.960;8.542;2024-02-04T11:13:30;16.90;;;16.00;;
2019;SDS011;1014;51.960;8.542;2024-02-04T11:15:58;17.43;;;16.37;;
2019;SDS011;1014;51.960;8.542;2024-02-04T11:18:30;17.83;;;16.60;;
2019;SDS011;1014;51.960;8.542;2024-02-04T11:21:07;17.33;;;16.03;;
2019;SDS011;1014;51.960;8.542;2024-02-04T11:23:41;15.90;;;15.10;;
2019;SDS011;1014;51.960;8.542;2024-02-04T11:26:10;16.37;;;15.57;;
2019;SDS011;1014;51.960;8.542;2024-02-04T11:28:37;18.17;;;16.90;;
2019;SDS011;1014;51.960;8.542;2024-02-04T11:31:12;18.57;;;17.37;;
2019;SDS011;1014;51.960;8.542;2024-02-04T11:33:40;18.70;;;17.70;;
2019;SDS011;1014;51.960;8.542;2024-02-04T11:36:11;17.50;;;16.60;;
2019;SDS011;1014;51.960;8.542;2024-02-04T11:38:39;18.17;;;16.90;;
2019;SDS011;1014;51.960;8.542;2024-02-04T11:41:07;17.27;;;16.20;;
2019;SDS011;1014;51.960;8.542;2024-02-04T11:43:35;17.87;;;16.87;;
2019;SDS011;1014;51.960;8.542;2024-02-04T11:46:04;16.80;;;15.80;;
2019;SDS011;1014;51.960;8.542;2024-02-04T11:48:32;17.90;;;16.90;;
2019;SDS011;1014;51.960;8.542;2024-02-04T11:50:59;21.03;;;19.50;;
2019;SDS011;1014;51.960;8.542;2024-02-04T11:53:28;20.93;;;19.63;;
2019;SDS011;1014;51.960;8.542;2024-02-04T11:55:57;19.43;;;18.23;;
2019;SDS011;1014;51.960;8.542;2024-02-04T11:58:25;20.53;;;19.10;;
2019;SDS011;1014;51.960;8.542;2024-02-04T12:00:53;20.37;;;19.00;;
2019;SDS011;1014;51.960;8.542;2024-02-04T12:03:28;19.50;;;18.20;;
2019;SDS011;1014;51.960;8.542;2024-02-04T12:05:55;20.03;;;18.53;;
2019;SDS011;1014;51.960;8.542;2024-02-04T12:08:23;22.20;;;20.70;;
2019;SDS011;1014;51.960;8.542;2024-02-04T12:10:54;23.53;;;21.90;;
2019;SDS011;1014;51.960;8.542;2024-02-04T12:13:21;22.33;;;20.77;;
2019;SDS011;1014;51.960;8.542;2024-02-04T12:15:48;23.03;;;21.43;;
2019;SDS011;1014;51.960;8.542;2024-02-04T12:18:16;23.93;;;22.23;;
2019;SDS011;1014;51.960;8.542;2024-02-04T12:20:45;21.80;;;20.43;;
2019;SDS011;1014;51.960;8.542;2024-02-04T12:23:13;20.50;;;19.40;;
2019;SDS011;1014;51.960;8.542;2024-02-04T12:25:41;23.50;;;21.63;;
2019;SDS011;1014;51.960;8.542;2024-02-04T12:28:09;23.17;;;21.50;;
2019;SDS011;1014;51.960;8.542;2024-02-04T12:30:38;24.60;;;23.00;;
2019;SDS011;1014;51.960;8.542;2024-02-04T12:33:06;23.00;;;21.40;;
2019;SDS011;1014;51.960;8.542;2024-02-04T12:35:33;20.43;;;19.33;;
2019;SDS011;1014;51.960;8.542;2024-02-04T12:38:01;26.03;;;24.10;;
2019;SDS011;1014;51.960;8.542;2024-02-04T12:40:29;23.53;;;21.87;;
2019;SDS011;1014;51.960;8.542;2024-02-04T12:42:56;25.70;;;24.10;;
2019;SDS011;1014;51.960;8.542;2024-02-04T12:45:25;26.00;;;24.13;;
2019;SDS011;1014;51.960;8.542;2024-02-04T12:47:54;22.87;;;21.50;;
2019;SDS011;1014;51.960;8.542;2024-02-04T12:50:22;26.77;;;24.90;;
2019;SDS011;1014;51.960;8.542;2024-02-04T12:52:50;24.33;;;22.70;;
2019;SDS011;1014;51.960;8.542;2024-02-04T12:55:21;24.40;;;22.20;;
2019;SDS011;1014;51.960;8.542;2024-02-04T12:57:50;24.33;;;22.53;;
2019;SDS011;1014;51.960;8.542;2024-02-04T13:00:18;22.80;;;21.30;;
2019;SDS011;1014;51.960;8.542;2024-02-04T13:02:49;24.40;;;22.90;;
2019;SDS011;1014;51.960;8.542;2024-02-04T13:05:22;22.40;;;21.20;;
2019;SDS011;1014;51.960;8.542;2024-02-04T13:07:51;21.93;;;20.50;;
2019;SDS011;1014;51.960;8.542;2024-02-04T13:10:20;23.07;;;21.40;;
2019;SDS011;1014;51.960;8.542;2024-02-04T13:12:57;22.33;;;20.70;;
2019;SDS011;1014;51.960;8.542;2024-02-04T13:15:25;23.30;;;21.90;;
2019;SDS011;1014;51.960;8.542;2024-02-04T13:17:53;24.87;;;23.33;;
2019;SDS011;1014;51.960;8.542;2024-02-04T13:20:21;24.43;;;22.60;;
2019;SDS011;1014;51.960;8.542;2024-02-04T13:22:48;20.03;;;19.03;;
2019;SDS011;1014;51.960;8.542;2024-02-04T13:25:15;23.43;;;21.80;;
2019;SDS011;1014;51.960;8.542;2024-02-04T13:27:43;22.27;;;20.87;;
2019;SDS011;1014;51.960;8.542;2024-02-04T13:30:10;22.83;;;21.63;;
2019;SDS011;1014;51.960;8.542;2024-02-04T13:32:38;21.93;;;20.60;;
2019;SDS011;1014;51.960;8.542;2024-02-04T13:35:08;20.77;;;19.87;;
2019;SDS011;1014;51.960;8.542;2024-02-04T13:37:35;19.60;;;18.50;;
2019;SDS011;1014;51.960;8.542;2024-02-04T13:40:03;20.17;;;19.17;;
2019;SDS011;1014;51.960;8.542;2024-02-04T13:42:31;21.97;;;20.77;;
2019;SDS011;1014;51.960;8.542;2024-02-04T13:44:59;22.47;;;21.17;;
2019;SDS011;1014;51.960;8.542;2024-02-04T13:47:27;21.10;;;20.10;;
2019;SDS011;1014;51.960;8.542;2024-02-04T13:49:55;22.80;;;21.37;;
2019;SDS011;1014;51.960;8.542;2024-02-04T13:52:23;25.17;;;23.87;;
2019;SDS011;1014;51.960;8.542;2024-02-04T13:54:50;26.33;;;24.63;;
2019;SDS011;1014;51.960;8.542;2024-02-04T13:57:18;26.07;;;24.77;;
2019;SDS011;1014;51.960;8.542;2024-02-04T13:59:45;26.73;;;25.33;;
2019;SDS011;1014;51.960;8.542;2024-02-04T14:02:12;26.50;;;25.20;;
2019;SDS011;1014;51.960;8.542;2024-02-04T14:04:39;27.50;;;26.00;;
2019;SDS011;1014;51.960;8.542;2024-02-04T14:07:08;25.53;;;24.23;;
2019;SDS011;1014;51.960;8.542;2024-02-04T14:09:36;24.97;;;23.70;;
2019;SDS011;1014;51.960;8.542;2024-02-04T14:12:03;25.20;;;24.00;;
2019;SDS011;1014;51.960;8.542;2024-02-04T14:14:31;28.53;;;27.23;;
2019;SDS011;1014;51.960;8.542;2024-02-04T14:16:58;27.10;;;25.80;;
2019;SDS011;1014;51.960;8.542;2024-02-04T14:19:24;26.93;;;25.53;;
2019;SDS011;1014;51.960;8.542;2024-02-04T14:21:52;28.10;;;26.67;;
2019;SDS011;1014;51.960;8.542;2024-02-04T14:24:21;27.43;;;25.87;;
2019;SDS011;1014;51.960;8.542;2024-02-04T14:26:55;26.03;;;24.60;;
2019;SDS011;1014;51.960;8.542;2024-02-04T14:29:22;25.57;;;24.33;;
2019;SDS011;1014;51.960;8.542;2024-02-04T14:31:50;25.70;;;24.40;;
2019;SDS011;1014;51.960;8.542;2024-02-04T14:34:17;28.40;;;26.73;;
2019;SDS011;1014;51.960;8.542;2024-02-04T14:36:44;25.70;;;24.40;;
2019;SDS011;1014;51.960;8.542;2024-02-04T14:39:11;25.00;;;23.90;;
2019;SDS011;1014;51.960;8.542;2024-02-04T14:41:39;25.30;;;23.80;;
2019;SDS011;1014;51.960;8.542;2024-02-04T14:44:08;27.40;;;26.10;;
2019;SDS011;1014;51.960;8.542;2024-02-04T14:46:35;27.50;;;26.10;;
2019;SDS011;1014;51.960;8.542;2024-02-04T14:49:03;28.67;;;27.07;;
2019;SDS011;1014;51.960;8.542;2024-02-04T14:51:30;28.40;;;27.00;;